sensor_id;sensor_type;location;lat;lon;timestamp;temperature;humidity
27114;DHT22;14648;49.730;8.614;2023-03-03T00:01:21;4.40;37.20
27114;DHT22;14648;49.730;8.614;2023-03-03T00:03:49;4.40;37.20
27114;DHT22;14648;49.730;8.614;2023-03-03T00:06:15;4.40;37.20
27114;DHT22;14648;49.730;8.614;2023-03-03T00:08:46;4.40;37.10
27114;DHT22;14648;49.730;8.614;2023-03-03T00:11:12;4.40;37.10
27114;DHT22;14648;49.730;8.614;2023-03-03T00:16:20;4.40;37.10
27114;DHT22;14648;49.730;8.614;2023-03-03T00:18:53;4.30;37.10
27114;DHT22;14648;49.730;8.614;2023-03-03T00:21:39;4.30;37.10
27114;DHT22;14648;49.730;8.614;2023-03-03T00:24:30;4.30;37.20
27114;DHT22;14648;49.730;8.614;2023-03-03T00:27:15;4.30;37.10
27114;DHT22;14648;49.730;8.614;2023-03-03T00:29:49;4.30;37.10
27114;DHT22;14648;49.730;8.614;2023-03-03T00:35:26;4.30;37.10
27114;DHT22;14648;49.730;8.614;2023-03-03T00:38:14;4.20;37.10
27114;DHT22;14648;49.730;8.614;2023-03-03T00:40:43;4.30;37.10
27114;DHT22;14648;49.730;8.614;2023-03-03T00:43:23;4.20;37.00
27114;DHT22;14648;49.730;8.614;2023-03-03T00:45:54;4.20;37.10
27114;DHT22;14648;49.730;8.614;2023-03-03T00:51:01;4.10;37.40
27114;DHT22;14648;49.730;8.614;2023-03-03T00:53:35;4.00;37.40
27114;DHT22;14648;49.730;8.614;2023-03-03T00:56:00;4.00;37.40
27114;DHT22;14648;49.730;8.614;2023-03-03T00:58:26;4.00;37.50
27114;DHT22;14648;49.730;8.614;2023-03-03T01:00:53;3.90;37.60
27114;DHT22;14648;49.730;8.614;2023-03-03T01:03:23;3.90;37.70
27114;DHT22;14648;49.730;8.614;2023-03-03T01:05:50;3.80;37.70
27114;DHT22;14648;49.730;8.614;2023-03-03T01:08:17;3.80;37.80
27114;DHT22;14648;49.730;8.614;2023-03-03T01:10:49;3.80;37.80
27114;DHT22;14648;49.730;8.614;2023-03-03T01:13:17;3.80;37.80
27114;DHT22;14648;49.730;8.614;2023-03-03T01:15:44;3.80;37.90
27114;DHT22;14648;49.730;8.614;2023-03-03T01:18:11;3.70;37.90
27114;DHT22;14648;49.730;8.614;2023-03-03T01:20:38;3.70;37.90
27114;DHT22;14648;49.730;8.614;2023-03-03T01:23:04;3.70;37.90
27114;DHT22;14648;49.730;8.614;2023-03-03T01:25:30;3.70;38.00
27114;DHT22;14648;49.730;8.614;2023-03-03T01:27:59;3.70;38.00
27114;DHT22;14648;49.730;8.614;2023-03-03T01:30:25;3.70;38.00
27114;DHT22;14648;49.730;8.614;2023-03-03T01:32:52;3.70;38.70
27114;DHT22;14648;49.730;8.614;2023-03-03T01:35:18;3.70;38.10
27114;DHT22;14648;49.730;8.614;2023-03-03T01:37:44;3.60;38.00
27114;DHT22;14648;49.730;8.614;2023-03-03T01:40:20;3.60;38.10
27114;DHT22;14648;49.730;8.614;2023-03-03T01:42:48;3.60;38.20
27114;DHT22;14648;49.730;8.614;2023-03-03T01:45:15;3.50;38.20
27114;DHT22;14648;49.730;8.614;2023-03-03T01:50:48;3.50;38.60
27114;DHT22;14648;49.730;8.614;2023-03-03T01:53:27;3.40;38.40
27114;DHT22;14648;49.730;8.614;2023-03-03T01:55:57;3.40;38.50
27114;DHT22;14648;49.730;8.614;2023-03-03T01:59:05;3.40;38.50
27114;DHT22;14648;49.730;8.614;2023-03-03T02:01:31;3.40;38.70
27114;DHT22;14648;49.730;8.614;2023-03-03T02:03:58;3.40;38.50
27114;DHT22;14648;49.730;8.614;2023-03-03T02:06:32;3.30;38.60
27114;DHT22;14648;49.730;8.614;2023-03-03T02:09:21;3.30;38.70
27114;DHT22;14648;49.730;8.614;2023-03-03T02:11:55;3.30;38.80
27114;DHT22;14648;49.730;8.614;2023-03-03T02:14:23;3.30;38.70
27114;DHT22;14648;49.730;8.614;2023-03-03T02:16:50;3.20;38.70
27114;DHT22;14648;49.730;8.614;2023-03-03T02:19:24;3.20;38.70
27114;DHT22;14648;49.730;8.614;2023-03-03T02:21:56;3.20;38.90
27114;DHT22;14648;49.730;8.614;2023-03-03T02:24:38;3.20;38.80
27114;DHT22;14648;49.730;8.614;2023-03-03T02:27:11;3.10;39.00
27114;DHT22;14648;49.730;8.614;2023-03-03T02:29:38;3.10;38.90
27114;DHT22;14648;49.730;8.614;2023-03-03T02:32:04;3.10;38.90
27114;DHT22;14648;49.730;8.614;2023-03-03T02:34:30;3.10;39.00
27114;DHT22;14648;49.730;8.614;2023-03-03T02:36:55;3.10;39.10
27114;DHT22;14648;49.730;8.614;2023-03-03T02:39:23;3.00;39.10
27114;DHT22;14648;49.730;8.614;2023-03-03T02:42:08;3.00;39.20
27114;DHT22;14648;49.730;8.614;2023-03-03T02:44:39;3.00;39.40
27114;DHT22;14648;49.730;8.614;2023-03-03T02:47:05;2.90;39.30
27114;DHT22;14648;49.730;8.614;2023-03-03T02:49:33;2.90;39.50
27114;DHT22;14648;49.730;8.614;2023-03-03T02:52:02;2.90;39.50
27114;DHT22;14648;49.730;8.614;2023-03-03T02:54:30;2.90;39.60
27114;DHT22;14648;49.730;8.614;2023-03-03T02:56:58;2.80;39.60
27114;DHT22;14648;49.730;8.614;2023-03-03T02:59:24;2.80;39.70
27114;DHT22;14648;49.730;8.614;2023-03-03T03:01:51;2.90;39.80
27114;DHT22;14648;49.730;8.614;2023-03-03T03:04:22;2.80;39.70
27114;DHT22;14648;49.730;8.614;2023-03-03T03:06:50;2.90;39.90
27114;DHT22;14648;49.730;8.614;2023-03-03T03:09:18;2.80;39.80
27114;DHT22;14648;49.730;8.614;2023-03-03T03:11:44;2.80;39.90
27114;DHT22;14648;49.730;8.614;2023-03-03T03:14:11;2.80;40.00
27114;DHT22;14648;49.730;8.614;2023-03-03T03:16:38;2.80;40.20
27114;DHT22;14648;49.730;8.614;2023-03-03T03:19:04;2.80;40.20
27114;DHT22;14648;49.730;8.614;2023-03-03T03:21:31;2.80;40.30
27114;DHT22;14648;49.730;8.614;2023-03-03T03:23:56;2.80;40.40
27114;DHT22;14648;49.730;8.614;2023-03-03T03:26:22;2.80;40.40
27114;DHT22;14648;49.730;8.614;2023-03-03T03:28:49;2.80;40.40
27114;DHT22;14648;49.730;8.614;2023-03-03T03:31:17;2.70;40.60
27114;DHT22;14648;49.730;8.614;2023-03-03T03:33:44;2.80;40.70
27114;DHT22;14648;49.730;8.614;2023-03-03T03:36:10;2.70;40.70
27114;DHT22;14648;49.730;8.614;2023-03-03T03:38:36;2.70;40.80
27114;DHT22;14648;49.730;8.614;2023-03-03T03:41:03;2.70;40.90
27114;DHT22;14648;49.730;8.614;2023-03-03T03:43:29;2.70;41.00
27114;DHT22;14648;49.730;8.614;2023-03-03T03:45:55;2.70;41.10
27114;DHT22;14648;49.730;8.614;2023-03-03T03:48:21;2.60;41.20
27114;DHT22;14648;49.730;8.614;2023-03-03T03:50:47;2.60;41.40
27114;DHT22;14648;49.730;8.614;2023-03-03T03:53:13;2.60;41.40
27114;DHT22;14648;49.730;8.614;2023-03-03T03:55:39;2.60;41.50
27114;DHT22;14648;49.730;8.614;2023-03-03T03:58:05;2.60;41.60
27114;DHT22;14648;49.730;8.614;2023-03-03T04:00:31;2.50;41.70
27114;DHT22;14648;49.730;8.614;2023-03-03T04:02:56;2.50;41.70
27114;DHT22;14648;49.730;8.614;2023-03-03T04:05:22;2.50;41.80
27114;DHT22;14648;49.730;8.614;2023-03-03T04:07:48;2.50;41.80
27114;DHT22;14648;49.730;8.614;2023-03-03T04:10:14;2.50;41.90
27114;DHT22;14648;49.730;8.614;2023-03-03T04:12:39;2.40;42.00
27114;DHT22;14648;49.730;8.614;2023-03-03T04:15:07;2.40;42.00
27114;DHT22;14648;49.730;8.614;2023-03-03T04:17:34;2.50;42.10
27114;DHT22;14648;49.730;8.614;2023-03-03T04:20:01;2.50;42.20
27114;DHT22;14648;49.730;8.614;2023-03-03T04:22:28;2.50;42.10
27114;DHT22;14648;49.730;8.614;2023-03-03T04:24:59;2.50;42.30
27114;DHT22;14648;49.730;8.614;2023-03-03T04:27:25;2.50;42.30
27114;DHT22;14648;49.730;8.614;2023-03-03T04:29:50;2.50;42.30
27114;DHT22;14648;49.730;8.614;2023-03-03T04:32:16;2.50;42.40
27114;DHT22;14648;49.730;8.614;2023-03-03T04:34:43;2.50;42.40
27114;DHT22;14648;49.730;8.614;2023-03-03T04:37:09;2.50;42.50
27114;DHT22;14648;49.730;8.614;2023-03-03T04:39:34;2.50;42.60
27114;DHT22;14648;49.730;8.614;2023-03-03T04:42:00;2.50;42.70
27114;DHT22;14648;49.730;8.614;2023-03-03T04:44:26;2.50;42.80
27114;DHT22;14648;49.730;8.614;2023-03-03T04:46:52;2.50;42.80
27114;DHT22;14648;49.730;8.614;2023-03-03T04:49:17;2.60;43.60
27114;DHT22;14648;49.730;8.614;2023-03-03T04:51:43;2.60;43.10
27114;DHT22;14648;49.730;8.614;2023-03-03T04:54:09;2.60;43.30
27114;DHT22;14648;49.730;8.614;2023-03-03T04:56:34;2.60;43.40
27114;DHT22;14648;49.730;8.614;2023-03-03T04:59:00;2.70;43.60
27114;DHT22;14648;49.730;8.614;2023-03-03T05:01:26;2.70;43.70
27114;DHT22;14648;49.730;8.614;2023-03-03T05:03:51;2.70;43.90
27114;DHT22;14648;49.730;8.614;2023-03-03T05:06:17;2.70;44.00
27114;DHT22;14648;49.730;8.614;2023-03-03T05:08:44;2.70;44.10
27114;DHT22;14648;49.730;8.614;2023-03-03T05:11:10;2.80;44.20
27114;DHT22;14648;49.730;8.614;2023-03-03T05:13:36;2.80;44.40
27114;DHT22;14648;49.730;8.614;2023-03-03T05:16:02;2.80;44.70
27114;DHT22;14648;49.730;8.614;2023-03-03T05:18:28;2.80;45.10
27114;DHT22;14648;49.730;8.614;2023-03-03T05:20:54;2.80;45.30
27114;DHT22;14648;49.730;8.614;2023-03-03T05:23:20;2.80;45.60
27114;DHT22;14648;49.730;8.614;2023-03-03T05:25:47;2.90;45.70
27114;DHT22;14648;49.730;8.614;2023-03-03T05:28:13;2.90;46.00
27114;DHT22;14648;49.730;8.614;2023-03-03T05:30:39;2.90;46.00
27114;DHT22;14648;49.730;8.614;2023-03-03T05:33:05;2.90;46.10
27114;DHT22;14648;49.730;8.614;2023-03-03T05:35:31;2.90;46.20
27114;DHT22;14648;49.730;8.614;2023-03-03T05:37:57;3.00;46.30
27114;DHT22;14648;49.730;8.614;2023-03-03T05:40:24;3.00;46.40
27114;DHT22;14648;49.730;8.614;2023-03-03T05:42:51;3.00;46.30
27114;DHT22;14648;49.730;8.614;2023-03-03T05:45:17;3.00;46.20
27114;DHT22;14648;49.730;8.614;2023-03-03T05:47:54;3.00;46.30
27114;DHT22;14648;49.730;8.614;2023-03-03T05:50:21;3.00;46.30
27114;DHT22;14648;49.730;8.614;2023-03-03T05:52:51;2.90;46.40
27114;DHT22;14648;49.730;8.614;2023-03-03T05:55:17;2.80;46.40
27114;DHT22;14648;49.730;8.614;2023-03-03T05:57:46;2.80;47.20
27114;DHT22;14648;49.730;8.614;2023-03-03T06:00:13;2.80;46.50
27114;DHT22;14648;49.730;8.614;2023-03-03T06:02:40;2.80;46.50
27114;DHT22;14648;49.730;8.614;2023-03-03T06:05:07;2.80;46.60
27114;DHT22;14648;49.730;8.614;2023-03-03T06:07:33;2.80;46.50
27114;DHT22;14648;49.730;8.614;2023-03-03T06:09:59;2.80;46.40
27114;DHT22;14648;49.730;8.614;2023-03-03T06:12:25;2.70;46.40
27114;DHT22;14648;49.730;8.614;2023-03-03T06:14:51;2.70;46.40
27114;DHT22;14648;49.730;8.614;2023-03-03T06:17:16;2.60;46.30
27114;DHT22;14648;49.730;8.614;2023-03-03T06:19:42;2.60;46.20
27114;DHT22;14648;49.730;8.614;2023-03-03T06:22:08;2.60;46.30
27114;DHT22;14648;49.730;8.614;2023-03-03T06:24:34;2.50;46.20
27114;DHT22;14648;49.730;8.614;2023-03-03T06:27:00;2.50;46.20
27114;DHT22;14648;49.730;8.614;2023-03-03T06:29:27;2.50;46.20
27114;DHT22;14648;49.730;8.614;2023-03-03T06:31:53;2.50;46.20
27114;DHT22;14648;49.730;8.614;2023-03-03T06:34:18;2.50;46.60
27114;DHT22;14648;49.730;8.614;2023-03-03T06:36:44;2.40;46.10
27114;DHT22;14648;49.730;8.614;2023-03-03T06:39:11;2.50;46.20
27114;DHT22;14648;49.730;8.614;2023-03-03T06:41:36;2.40;46.30
27114;DHT22;14648;49.730;8.614;2023-03-03T06:44:02;2.30;46.40
27114;DHT22;14648;49.730;8.614;2023-03-03T06:46:28;2.30;46.50
27114;DHT22;14648;49.730;8.614;2023-03-03T06:48:54;2.20;47.30
27114;DHT22;14648;49.730;8.614;2023-03-03T06:51:24;2.20;46.70
27114;DHT22;14648;49.730;8.614;2023-03-03T06:53:55;2.20;46.70
27114;DHT22;14648;49.730;8.614;2023-03-03T06:56:25;2.20;46.70
27114;DHT22;14648;49.730;8.614;2023-03-03T06:58:56;2.30;46.80
27114;DHT22;14648;49.730;8.614;2023-03-03T07:01:24;2.30;46.80
27114;DHT22;14648;49.730;8.614;2023-03-03T07:03:49;2.30;46.70
27114;DHT22;14648;49.730;8.614;2023-03-03T07:06:21;2.40;46.60
27114;DHT22;14648;49.730;8.614;2023-03-03T07:08:50;2.40;46.70
27114;DHT22;14648;49.730;8.614;2023-03-03T07:11:20;2.40;46.50
27114;DHT22;14648;49.730;8.614;2023-03-03T07:13:49;2.40;46.60
27114;DHT22;14648;49.730;8.614;2023-03-03T07:16:18;2.50;46.60
27114;DHT22;14648;49.730;8.614;2023-03-03T07:18:58;2.50;46.60
27114;DHT22;14648;49.730;8.614;2023-03-03T07:21:33;2.50;46.70
27114;DHT22;14648;49.730;8.614;2023-03-03T07:24:24;2.50;46.70
27114;DHT22;14648;49.730;8.614;2023-03-03T07:26:58;2.50;46.80
27114;DHT22;14648;49.730;8.614;2023-03-03T07:29:27;2.60;46.70
27114;DHT22;14648;49.730;8.614;2023-03-03T07:31:56;2.60;46.70
27114;DHT22;14648;49.730;8.614;2023-03-03T07:34:33;2.60;46.70
27114;DHT22;14648;49.730;8.614;2023-03-03T07:37:15;2.60;46.80
27114;DHT22;14648;49.730;8.614;2023-03-03T07:39:44;2.70;47.10
27114;DHT22;14648;49.730;8.614;2023-03-03T07:42:25;2.70;47.10
27114;DHT22;14648;49.730;8.614;2023-03-03T07:44:57;2.70;47.10
27114;DHT22;14648;49.730;8.614;2023-03-03T07:47:24;2.80;47.00
27114;DHT22;14648;49.730;8.614;2023-03-03T07:49:53;2.90;47.10
27114;DHT22;14648;49.730;8.614;2023-03-03T07:52:38;2.90;47.20
27114;DHT22;14648;49.730;8.614;2023-03-03T07:55:34;3.00;47.60
27114;DHT22;14648;49.730;8.614;2023-03-03T07:58:18;3.00;48.00
27114;DHT22;14648;49.730;8.614;2023-03-03T08:03:52;3.00;48.70
27114;DHT22;14648;49.730;8.614;2023-03-03T08:14:34;3.30;49.90
27114;DHT22;14648;49.730;8.614;2023-03-03T08:17:01;3.50;49.90
27114;DHT22;14648;49.730;8.614;2023-03-03T08:19:52;3.60;49.90
27114;DHT22;14648;49.730;8.614;2023-03-03T08:22:30;3.80;50.20
27114;DHT22;14648;49.730;8.614;2023-03-03T08:24:58;3.90;50.40
27114;DHT22;14648;49.730;8.614;2023-03-03T08:27:23;4.10;50.30
27114;DHT22;14648;49.730;8.614;2023-03-03T08:29:49;4.20;50.30
27114;DHT22;14648;49.730;8.614;2023-03-03T08:32:15;4.30;50.40
27114;DHT22;14648;49.730;8.614;2023-03-03T08:34:41;4.40;50.50
27114;DHT22;14648;49.730;8.614;2023-03-03T08:37:06;4.60;50.60
27114;DHT22;14648;49.730;8.614;2023-03-03T08:39:32;4.60;50.70
27114;DHT22;14648;49.730;8.614;2023-03-03T08:41:58;4.70;50.70
27114;DHT22;14648;49.730;8.614;2023-03-03T08:44:24;4.60;50.60
27114;DHT22;14648;49.730;8.614;2023-03-03T08:46:49;4.70;50.90
27114;DHT22;14648;49.730;8.614;2023-03-03T08:49:15;4.70;50.90
27114;DHT22;14648;49.730;8.614;2023-03-03T08:51:41;4.90;50.90
27114;DHT22;14648;49.730;8.614;2023-03-03T08:54:07;5.00;51.00
27114;DHT22;14648;49.730;8.614;2023-03-03T08:56:33;5.10;51.10
27114;DHT22;14648;49.730;8.614;2023-03-03T08:58:58;5.20;50.80
27114;DHT22;14648;49.730;8.614;2023-03-03T09:01:24;5.30;50.80
27114;DHT22;14648;49.730;8.614;2023-03-03T09:03:50;5.40;50.80
27114;DHT22;14648;49.730;8.614;2023-03-03T09:06:16;5.50;50.80
27114;DHT22;14648;49.730;8.614;2023-03-03T09:08:41;5.70;50.80
27114;DHT22;14648;49.730;8.614;2023-03-03T09:11:14;5.90;50.60
27114;DHT22;14648;49.730;8.614;2023-03-03T09:13:44;6.00;50.40
27114;DHT22;14648;49.730;8.614;2023-03-03T09:16:13;6.20;50.40
27114;DHT22;14648;49.730;8.614;2023-03-03T09:18:40;6.40;50.10
27114;DHT22;14648;49.730;8.614;2023-03-03T09:21:30;6.40;49.80
27114;DHT22;14648;49.730;8.614;2023-03-03T09:23:59;6.40;49.80
27114;DHT22;14648;49.730;8.614;2023-03-03T09:31:42;6.50;49.70
27114;DHT22;14648;49.730;8.614;2023-03-03T09:34:45;6.60;49.50
27114;DHT22;14648;49.730;8.614;2023-03-03T09:37:20;6.60;49.30
27114;DHT22;14648;49.730;8.614;2023-03-03T09:40:37;6.70;49.30
27114;DHT22;14648;49.730;8.614;2023-03-03T09:43:09;6.70;49.10
27114;DHT22;14648;49.730;8.614;2023-03-03T09:46:12;6.80;49.00
27114;DHT22;14648;49.730;8.614;2023-03-03T09:49:04;6.80;48.90
27114;DHT22;14648;49.730;8.614;2023-03-03T10:00:54;7.30;48.70
27114;DHT22;14648;49.730;8.614;2023-03-03T10:06:32;7.40;48.50
27114;DHT22;14648;49.730;8.614;2023-03-03T10:12:11;7.50;48.70
27114;DHT22;14648;49.730;8.614;2023-03-03T10:18:29;8.20;48.60
27114;DHT22;14648;49.730;8.614;2023-03-03T10:21:24;8.40;48.40
27114;DHT22;14648;49.730;8.614;2023-03-03T10:24:04;8.60;48.10
27114;DHT22;14648;49.730;8.614;2023-03-03T10:27:01;8.80;47.90
27114;DHT22;14648;49.730;8.614;2023-03-03T10:32:37;9.00;47.60
27114;DHT22;14648;49.730;8.614;2023-03-03T10:38:07;9.50;47.20
27114;DHT22;14648;49.730;8.614;2023-03-03T10:40:56;9.60;46.80
27114;DHT22;14648;49.730;8.614;2023-03-03T10:43:38;9.70;46.40
27114;DHT22;14648;49.730;8.614;2023-03-03T10:49:08;10.00;46.00
27114;DHT22;14648;49.730;8.614;2023-03-03T10:54:27;10.40;45.60
27114;DHT22;14648;49.730;8.614;2023-03-03T11:00:14;10.90;45.60
27114;DHT22;14648;49.730;8.614;2023-03-03T11:06:00;11.20;43.90
27114;DHT22;14648;49.730;8.614;2023-03-03T11:08:45;11.20;44.00
27114;DHT22;14648;49.730;8.614;2023-03-03T11:11:19;11.30;43.70
27114;DHT22;14648;49.730;8.614;2023-03-03T11:14:05;11.30;43.60
27114;DHT22;14648;49.730;8.614;2023-03-03T11:22:51;12.10;43.50
27114;DHT22;14648;49.730;8.614;2023-03-03T11:25:29;12.50;43.60
27114;DHT22;14648;49.730;8.614;2023-03-03T11:28:07;12.90;43.00
27114;DHT22;14648;49.730;8.614;2023-03-03T11:33:43;13.30;41.80
27114;DHT22;14648;49.730;8.614;2023-03-03T11:36:27;13.50;41.20
27114;DHT22;14648;49.730;8.614;2023-03-03T11:39:12;13.50;40.30
27114;DHT22;14648;49.730;8.614;2023-03-03T11:44:41;13.60;39.60
27114;DHT22;14648;49.730;8.614;2023-03-03T11:50:03;13.90;39.30
27114;DHT22;14648;49.730;8.614;2023-03-03T11:52:42;14.10;38.80
27114;DHT22;14648;49.730;8.614;2023-03-03T11:55:28;14.20;38.80
27114;DHT22;14648;49.730;8.614;2023-03-03T12:00:55;14.50;38.40
27114;DHT22;14648;49.730;8.614;2023-03-03T12:13:11;15.30;37.20
27114;DHT22;14648;49.730;8.614;2023-03-03T12:18:34;15.70;36.40
27114;DHT22;14648;49.730;8.614;2023-03-03T12:24:30;15.80;36.10
27114;DHT22;14648;49.730;8.614;2023-03-03T12:32:50;16.20;34.20
27114;DHT22;14648;49.730;8.614;2023-03-03T12:35:48;16.20;33.70
27114;DHT22;14648;49.730;8.614;2023-03-03T12:41:44;16.30;33.00
27114;DHT22;14648;49.730;8.614;2023-03-03T12:44:27;16.30;32.80
27114;DHT22;14648;49.730;8.614;2023-03-03T12:47:24;16.20;32.60
27114;DHT22;14648;49.730;8.614;2023-03-03T13:04:40;16.90;32.00
27114;DHT22;14648;49.730;8.614;2023-03-03T13:07:29;17.00;31.50
27114;DHT22;14648;49.730;8.614;2023-03-03T13:10:34;17.00;30.90
27114;DHT22;14648;49.730;8.614;2023-03-03T13:13:44;16.90;30.90
27114;DHT22;14648;49.730;8.614;2023-03-03T13:16:11;17.00;31.40
27114;DHT22;14648;49.730;8.614;2023-03-03T13:18:56;17.10;31.40
27114;DHT22;14648;49.730;8.614;2023-03-03T13:24:28;17.20;31.20
27114;DHT22;14648;49.730;8.614;2023-03-03T13:27:06;17.40;30.80
27114;DHT22;14648;49.730;8.614;2023-03-03T13:29:43;17.40;30.40
27114;DHT22;14648;49.730;8.614;2023-03-03T13:32:23;17.50;30.20
27114;DHT22;14648;49.730;8.614;2023-03-03T13:35:05;17.50;30.20
27114;DHT22;14648;49.730;8.614;2023-03-03T13:37:47;17.50;30.20
27114;DHT22;14648;49.730;8.614;2023-03-03T13:40:38;17.50;30.20
27114;DHT22;14648;49.730;8.614;2023-03-03T13:52:02;17.20;29.80
27114;DHT22;14648;49.730;8.614;2023-03-03T13:58:01;17.20;30.00
27114;DHT22;14648;49.730;8.614;2023-03-03T14:03:52;16.90;29.80
27114;DHT22;14648;49.730;8.614;2023-03-03T14:06:26;16.80;29.50
27114;DHT22;14648;49.730;8.614;2023-03-03T14:17:53;16.80;29.30
27114;DHT22;14648;49.730;8.614;2023-03-03T14:20:31;16.80;29.90
27114;DHT22;14648;49.730;8.614;2023-03-03T14:23:03;16.70;29.30
27114;DHT22;14648;49.730;8.614;2023-03-03T14:28:43;16.50;29.70
27114;DHT22;14648;49.730;8.614;2023-03-03T14:31:17;16.40;29.60
27114;DHT22;14648;49.730;8.614;2023-03-03T14:36:51;16.10;29.80
27114;DHT22;14648;49.730;8.614;2023-03-03T14:41:55;15.90;29.70
27114;DHT22;14648;49.730;8.614;2023-03-03T14:44:28;15.70;29.50
27114;DHT22;14648;49.730;8.614;2023-03-03T14:49:32;15.30;29.50
27114;DHT22;14648;49.730;8.614;2023-03-03T14:54:41;15.00;29.90
27114;DHT22;14648;49.730;8.614;2023-03-03T14:57:22;15.10;30.20
27114;DHT22;14648;49.730;8.614;2023-03-03T15:05:30;14.80;30.40
27114;DHT22;14648;49.730;8.614;2023-03-03T15:08:07;14.80;30.40
27114;DHT22;14648;49.730;8.614;2023-03-03T15:10:42;14.70;30.60
27114;DHT22;14648;49.730;8.614;2023-03-03T15:13:35;14.50;30.60
27114;DHT22;14648;49.730;8.614;2023-03-03T15:18:33;14.30;30.70
27114;DHT22;14648;49.730;8.614;2023-03-03T15:21:29;14.10;30.80
27114;DHT22;14648;49.730;8.614;2023-03-03T15:24:06;14.10;30.90
27114;DHT22;14648;49.730;8.614;2023-03-03T15:26:45;13.90;30.90
27114;DHT22;14648;49.730;8.614;2023-03-03T15:38:03;13.10;31.40
27114;DHT22;14648;49.730;8.614;2023-03-03T15:43:54;12.70;31.40
27114;DHT22;14648;49.730;8.614;2023-03-03T15:46:49;12.60;31.40
27114;DHT22;14648;49.730;8.614;2023-03-03T15:49:54;12.50;31.60
27114;DHT22;14648;49.730;8.614;2023-03-03T15:52:51;12.30;31.60
27114;DHT22;14648;49.730;8.614;2023-03-03T15:56:08;12.20;31.60
27114;DHT22;14648;49.730;8.614;2023-03-03T16:05:34;11.90;31.60
27114;DHT22;14648;49.730;8.614;2023-03-03T16:08:15;11.80;32.20
27114;DHT22;14648;49.730;8.614;2023-03-03T16:16:49;11.60;32.00
27114;DHT22;14648;49.730;8.614;2023-03-03T16:37:21;10.60;33.30
27114;DHT22;14648;49.730;8.614;2023-03-03T16:46:30;10.30;33.00
27114;DHT22;14648;49.730;8.614;2023-03-03T16:49:22;10.20;33.00
27114;DHT22;14648;49.730;8.614;2023-03-03T16:52:08;10.00;33.00
27114;DHT22;14648;49.730;8.614;2023-03-03T16:54:55;9.90;33.10
27114;DHT22;14648;49.730;8.614;2023-03-03T16:57:40;9.80;33.20
27114;DHT22;14648;49.730;8.614;2023-03-03T17:00:39;9.70;33.30
27114;DHT22;14648;49.730;8.614;2023-03-03T17:03:40;9.60;33.20
27114;DHT22;14648;49.730;8.614;2023-03-03T17:06:32;9.40;33.30
27114;DHT22;14648;49.730;8.614;2023-03-03T17:12:29;9.20;33.40
27114;DHT22;14648;49.730;8.614;2023-03-03T17:15:19;9.10;33.50
27114;DHT22;14648;49.730;8.614;2023-03-03T17:18:19;8.90;33.40
27114;DHT22;14648;49.730;8.614;2023-03-03T17:20:49;8.80;33.40
27114;DHT22;14648;49.730;8.614;2023-03-03T17:26:26;8.70;33.60
27114;DHT22;14648;49.730;8.614;2023-03-03T17:29:13;8.60;33.60
27114;DHT22;14648;49.730;8.614;2023-03-03T17:38:55;8.30;33.90
27114;DHT22;14648;49.730;8.614;2023-03-03T17:41:30;8.20;33.80
27114;DHT22;14648;49.730;8.614;2023-03-03T17:44:23;8.10;33.70
27114;DHT22;14648;49.730;8.614;2023-03-03T17:47:09;7.90;33.80
27114;DHT22;14648;49.730;8.614;2023-03-03T17:52:27;7.70;33.90
27114;DHT22;14648;49.730;8.614;2023-03-03T17:58:24;7.50;34.20
27114;DHT22;14648;49.730;8.614;2023-03-03T18:13:16;6.90;34.30
27114;DHT22;14648;49.730;8.614;2023-03-03T18:19:11;6.70;34.70
27114;DHT22;14648;49.730;8.614;2023-03-03T18:26:51;6.50;36.60
27114;DHT22;14648;49.730;8.614;2023-03-03T18:29:23;6.50;36.20
27114;DHT22;14648;49.730;8.614;2023-03-03T18:42:40;6.30;36.70
27114;DHT22;14648;49.730;8.614;2023-03-03T18:53:28;6.10;37.00
27114;DHT22;14648;49.730;8.614;2023-03-03T18:55:59;6.10;37.30
27114;DHT22;14648;49.730;8.614;2023-03-03T18:58:32;6.10;37.10
27114;DHT22;14648;49.730;8.614;2023-03-03T19:01:32;6.00;37.00
27114;DHT22;14648;49.730;8.614;2023-03-03T19:09:10;5.80;37.30
27114;DHT22;14648;49.730;8.614;2023-03-03T19:11:55;5.80;37.50
27114;DHT22;14648;49.730;8.614;2023-03-03T19:20:15;5.70;38.00
27114;DHT22;14648;49.730;8.614;2023-03-03T19:22:46;5.70;38.10
27114;DHT22;14648;49.730;8.614;2023-03-03T19:25:22;5.60;38.00
27114;DHT22;14648;49.730;8.614;2023-03-03T19:30:52;5.50;38.30
27114;DHT22;14648;49.730;8.614;2023-03-03T19:33:49;5.50;38.50
27114;DHT22;14648;49.730;8.614;2023-03-03T19:37:18;5.50;38.50
27114;DHT22;14648;49.730;8.614;2023-03-03T19:43:00;5.40;38.40
27114;DHT22;14648;49.730;8.614;2023-03-03T19:46:20;5.50;38.70
27114;DHT22;14648;49.730;8.614;2023-03-03T19:56:57;5.30;39.30
27114;DHT22;14648;49.730;8.614;2023-03-03T19:59:39;5.30;39.50
27114;DHT22;14648;49.730;8.614;2023-03-03T20:02:49;5.30;39.80
27114;DHT22;14648;49.730;8.614;2023-03-03T20:08:08;5.30;39.90
27114;DHT22;14648;49.730;8.614;2023-03-03T20:11:08;5.30;40.10
27114;DHT22;14648;49.730;8.614;2023-03-03T20:16:38;5.20;40.30
27114;DHT22;14648;49.730;8.614;2023-03-03T20:22:08;5.20;40.50
27114;DHT22;14648;49.730;8.614;2023-03-03T20:24:47;5.20;40.60
27114;DHT22;14648;49.730;8.614;2023-03-03T20:27:23;5.10;40.70
27114;DHT22;14648;49.730;8.614;2023-03-03T20:41:52;4.80;40.90
27114;DHT22;14648;49.730;8.614;2023-03-03T20:55:27;4.60;41.10
27114;DHT22;14648;49.730;8.614;2023-03-03T20:58:06;4.60;40.90
27114;DHT22;14648;49.730;8.614;2023-03-03T21:01:42;4.60;40.90
27114;DHT22;14648;49.730;8.614;2023-03-03T21:06:56;4.40;41.10
27114;DHT22;14648;49.730;8.614;2023-03-03T21:09:36;4.30;41.00
27114;DHT22;14648;49.730;8.614;2023-03-03T21:12:25;4.30;41.30
27114;DHT22;14648;49.730;8.614;2023-03-03T21:15:24;4.20;41.30
27114;DHT22;14648;49.730;8.614;2023-03-03T21:17:53;4.20;41.30
27114;DHT22;14648;49.730;8.614;2023-03-03T21:20:34;4.10;41.10
27114;DHT22;14648;49.730;8.614;2023-03-03T21:23:01;4.10;41.30
27114;DHT22;14648;49.730;8.614;2023-03-03T21:25:50;4.00;41.10
27114;DHT22;14648;49.730;8.614;2023-03-03T21:31:07;4.00;41.20
27114;DHT22;14648;49.730;8.614;2023-03-03T21:33:56;3.90;41.40
27114;DHT22;14648;49.730;8.614;2023-03-03T21:36:43;3.90;41.40
27114;DHT22;14648;49.730;8.614;2023-03-03T21:46:59;3.70;41.50
27114;DHT22;14648;49.730;8.614;2023-03-03T21:49:25;3.60;41.40
27114;DHT22;14648;49.730;8.614;2023-03-03T21:51:51;3.60;41.40
27114;DHT22;14648;49.730;8.614;2023-03-03T21:54:20;3.50;41.60
27114;DHT22;14648;49.730;8.614;2023-03-03T21:56:46;3.40;41.60
27114;DHT22;14648;49.730;8.614;2023-03-03T21:59:13;3.40;41.70
27114;DHT22;14648;49.730;8.614;2023-03-03T22:01:38;3.30;41.80
27114;DHT22;14648;49.730;8.614;2023-03-03T22:04:04;3.30;42.00
27114;DHT22;14648;49.730;8.614;2023-03-03T22:06:30;3.20;42.00
27114;DHT22;14648;49.730;8.614;2023-03-03T22:08:56;3.20;42.10
27114;DHT22;14648;49.730;8.614;2023-03-03T22:11:21;3.20;42.20
27114;DHT22;14648;49.730;8.614;2023-03-03T22:13:47;3.10;42.20
27114;DHT22;14648;49.730;8.614;2023-03-03T22:16:14;3.10;42.30